createdAt,value
2019-03-06T00:00:37.016Z,97341.58
2019-03-06T00:02:38.603Z,97342.06
2019-03-06T00:04:40.246Z,97343.89
2019-03-06T00:06:42.151Z,97347.83
2019-03-06T00:08:43.763Z,97348.30
2019-03-06T00:10:45.366Z,97349.71
2019-03-06T00:12:46.971Z,97310.17
2019-03-06T00:14:48.574Z,97358.45
2019-03-06T00:16:50.169Z,97357.22
2019-03-06T00:18:51.760Z,97360.80
2019-03-06T00:20:53.395Z,97359.61
2019-03-06T00:22:55.008Z,97366.39
2019-03-06T00:24:56.616Z,97372.00
2019-03-06T00:26:58.209Z,97367.34
2019-03-06T00:28:59.805Z,97369.14
2019-03-06T00:31:01.421Z,97371.26
2019-03-06T00:33:03.053Z,97357.70
2019-03-06T00:35:04.657Z,97362.81
2019-03-06T00:37:06.286Z,97363.67
2019-03-06T00:39:07.900Z,97364.09
2019-03-06T00:41:10.094Z,97366.63
2019-03-06T00:43:11.729Z,97359.77
2019-03-06T00:45:13.344Z,97365.73
2019-03-06T00:47:14.988Z,97364.09
2019-03-06T00:49:16.604Z,97366.81
2019-03-06T00:51:18.202Z,97364.75
2019-03-06T00:53:19.829Z,97370.61
2019-03-06T00:55:21.443Z,97369.70
2019-03-06T00:57:23.164Z,97372.81
2019-03-06T00:59:24.823Z,97374.27
2019-03-06T01:01:26.440Z,97371.56
2019-03-06T01:03:28.065Z,97375.86
2019-03-06T01:05:29.647Z,97376.70
2019-03-06T01:07:31.268Z,97380.03
2019-03-06T01:09:32.869Z,97378.33
2019-03-06T01:11:34.481Z,97374.02
2019-03-06T01:13:36.106Z,97378.80
2019-03-06T01:15:37.720Z,97381.81
2019-03-06T01:17:39.319Z,97380.55
2019-03-06T01:19:40.974Z,97381.17
2019-03-06T01:21:42.576Z,97384.16
2019-03-06T01:23:44.209Z,97382.97
2019-03-06T01:25:45.817Z,97383.48
2019-03-06T01:27:47.400Z,97381.38
2019-03-06T01:29:49.055Z,97382.75
2019-03-06T01:31:50.654Z,97389.54
2019-03-06T01:33:52.292Z,97383.22
2019-03-06T01:35:57.781Z,97382.95
2019-03-06T01:38:05.208Z,97386.39
2019-03-06T01:40:07.287Z,97388.52
2019-03-06T01:42:09.804Z,97389.89
2019-03-06T01:44:12.011Z,97385.22
2019-03-06T01:46:13.628Z,97388.26
2019-03-06T01:48:15.233Z,97387.50
2019-03-06T01:50:16.851Z,97390.85
2019-03-06T01:52:18.500Z,97392.48
2019-03-06T01:54:20.094Z,97392.87
2019-03-06T01:56:21.718Z,97393.73
2019-03-06T01:58:23.323Z,97393.18
2019-03-06T02:00:24.926Z,97392.19
2019-03-06T02:02:26.622Z,97392.16
2019-03-06T02:04:28.213Z,97393.52
2019-03-06T02:06:29.832Z,97390.23
2019-03-06T02:08:31.434Z,97394.90
2019-03-06T02:10:33.043Z,97391.50
2019-03-06T02:12:34.729Z,97390.62
2019-03-06T02:14:36.345Z,97395.42
2019-03-06T02:16:38.010Z,97397.55
2019-03-06T02:18:39.600Z,97390.58
2019-03-06T02:20:41.205Z,97395.76
2019-03-06T02:22:42.798Z,97376.98
2019-03-06T02:24:44.476Z,97396.62
2019-03-06T02:26:46.107Z,97407.08
2019-03-06T02:28:47.710Z,97407.45
2019-03-06T02:30:49.309Z,97405.32
2019-03-06T02:32:50.918Z,97406.52
2019-03-06T02:34:52.535Z,97394.39
2019-03-06T02:36:54.142Z,97410.27
2019-03-06T02:38:55.786Z,97416.27
2019-03-06T02:40:57.398Z,97412.36
2019-03-06T02:42:58.994Z,97414.67
2019-03-06T02:45:00.630Z,97420.58
2019-03-06T02:47:02.242Z,97422.71
2019-03-06T02:49:03.883Z,97423.41
2019-03-06T02:51:05.526Z,97427.69
2019-03-06T02:53:07.175Z,97422.68
2019-03-06T02:55:08.789Z,97431.14
2019-03-06T02:57:10.390Z,97434.95
2019-03-06T02:59:12.031Z,97435.47
2019-03-06T03:01:29.246Z,97433.45
2019-03-06T03:03:31.789Z,97439.28
2019-03-06T03:05:39.089Z,97435.50
2019-03-06T03:07:40.694Z,97441.44
2019-03-06T03:09:42.320Z,97436.02
2019-03-06T03:11:43.922Z,97446.28
2019-03-06T03:13:45.521Z,97439.39
2019-03-06T03:15:47.122Z,97434.27
2019-03-06T03:17:48.744Z,97440.70
2019-03-06T03:19:50.380Z,97433.52
2019-03-06T03:21:51.985Z,97437.41
2019-03-06T03:23:53.635Z,97434.00
2019-03-06T03:25:55.272Z,97440.53
2019-03-06T03:27:56.881Z,97441.00
2019-03-06T03:29:58.526Z,97441.45
2019-03-06T03:32:00.150Z,97440.27
2019-03-06T03:34:01.766Z,97430.06
2019-03-06T03:36:03.369Z,97439.00
2019-03-06T03:38:04.966Z,97437.36
2019-03-06T03:40:06.567Z,97435.61
2019-03-06T03:42:08.165Z,97418.58
2019-03-06T03:44:09.763Z,97439.58
2019-03-06T03:46:11.370Z,97443.75
2019-03-06T03:48:12.969Z,97441.56
2019-03-06T03:50:14.575Z,97436.03
2019-03-06T03:52:16.284Z,97439.44
2019-03-06T03:54:17.871Z,97428.80
2019-03-06T03:56:19.519Z,97433.02
2019-03-06T03:58:21.126Z,97445.31
2019-03-06T04:00:22.773Z,97434.81
2019-03-06T04:02:24.453Z,97441.95
2019-03-06T04:04:26.057Z,97441.90
2019-03-06T04:06:27.705Z,97446.48
2019-03-06T04:08:29.323Z,97445.11
2019-03-06T04:10:30.926Z,97446.28
2019-03-06T04:12:34.266Z,97450.92
2019-03-06T04:14:34.242Z,97442.73
2019-03-06T04:16:35.893Z,97451.23
2019-03-06T04:18:37.494Z,97457.13
2019-03-06T04:20:39.091Z,97455.86
2019-03-06T04:22:40.734Z,97456.66
2019-03-06T04:24:42.348Z,97454.37
2019-03-06T04:26:44.008Z,97452.34
2019-03-06T04:28:45.632Z,97457.63
2019-03-06T04:30:47.307Z,97465.45
2019-03-06T04:32:48.941Z,97469.73
2019-03-06T04:34:50.556Z,97472.31
2019-03-06T04:36:52.162Z,97469.06
2019-03-06T04:38:53.790Z,97471.27
2019-03-06T04:40:55.436Z,97471.46
2019-03-06T04:42:57.060Z,97458.11
2019-03-06T04:44:58.653Z,97461.58
2019-03-06T04:47:00.255Z,97465.63
2019-03-06T04:49:01.867Z,97462.45
2019-03-06T04:51:03.475Z,97458.73
2019-03-06T04:53:05.086Z,97461.39
2019-03-06T04:55:06.704Z,97458.91
2019-03-06T04:57:08.308Z,97453.82
2019-03-06T04:59:09.938Z,97446.20
2019-03-06T05:01:11.542Z,97454.56
2019-03-06T05:03:13.148Z,97452.02
2019-03-06T05:05:14.787Z,97457.78
2019-03-06T05:07:16.393Z,97455.91
2019-03-06T05:09:18.031Z,97454.77
2019-03-06T05:11:19.649Z,97449.83
2019-03-06T05:13:21.267Z,97445.78
2019-03-06T05:15:23.612Z,97445.63
2019-03-06T05:17:25.936Z,97448.69
2019-03-06T05:19:27.554Z,97445.83
2019-03-06T05:21:29.173Z,97442.94
2019-03-06T05:23:30.784Z,97452.45
2019-03-06T05:25:32.542Z,97456.29
2019-03-06T05:27:34.153Z,97451.94
2019-03-06T05:29:35.820Z,97449.23
2019-03-06T05:31:37.425Z,97452.00
2019-03-06T05:33:39.051Z,97457.73
2019-03-06T05:35:40.646Z,97451.24
2019-03-06T05:37:42.252Z,97463.95
2019-03-06T05:39:43.919Z,97458.38
2019-03-06T05:41:45.531Z,97454.02
2019-03-06T05:43:47.141Z,97459.05
2019-03-06T05:45:48.793Z,97457.66
2019-03-06T05:47:50.412Z,97462.27
2019-03-06T05:49:52.075Z,97463.15
2019-03-06T05:51:53.682Z,97457.56
2019-03-06T05:53:55.291Z,97457.41
2019-03-06T05:55:56.893Z,97463.02
2019-03-06T05:57:58.489Z,97460.82
2019-03-06T06:00:00.318Z,97453.15
2019-03-06T06:02:01.794Z,97457.41
2019-03-06T06:04:03.398Z,97449.89
2019-03-06T06:06:04.998Z,97453.41
2019-03-06T06:08:06.620Z,97448.80
2019-03-06T06:10:08.268Z,97451.39
2019-03-06T06:12:09.885Z,97459.27
2019-03-06T06:14:11.495Z,97455.52
2019-03-06T06:16:13.099Z,97454.38
2019-03-06T06:18:14.712Z,97454.20
2019-03-06T06:20:16.365Z,97455.28
2019-03-06T06:22:20.617Z,97454.17
2019-03-06T06:24:22.249Z,97459.73
2019-03-06T06:26:23.850Z,97462.81
2019-03-06T06:28:25.500Z,97460.84
2019-03-06T06:30:27.161Z,97465.55
2019-03-06T06:32:28.776Z,97465.13
2019-03-06T06:34:30.367Z,97458.02
2019-03-06T06:36:31.969Z,97460.17
2019-03-06T06:38:33.609Z,97455.91
2019-03-06T06:40:35.804Z,97453.77
2019-03-06T06:42:36.936Z,97450.38
2019-03-06T06:44:38.534Z,97450.44
2019-03-06T06:46:40.149Z,97448.17
2019-03-06T06:48:41.760Z,97403.32
2019-03-06T06:50:43.446Z,97440.14
2019-03-06T06:52:45.049Z,97437.79
2019-03-06T06:54:46.668Z,97435.84
2019-03-06T06:56:48.333Z,97439.75
2019-03-06T06:58:49.940Z,97417.80
2019-03-06T07:00:52.227Z,97431.86
2019-03-06T07:02:59.470Z,97433.89
2019-03-06T07:05:16.697Z,97426.45
2019-03-06T07:07:24.110Z,97395.50
2019-03-06T07:09:44.480Z,97428.77
2019-03-06T07:12:01.086Z,97431.70
2019-03-06T07:14:06.173Z,97431.97
2019-03-06T07:16:13.368Z,97408.56
2019-03-06T07:18:20.590Z,97435.02
2019-03-06T07:20:24.941Z,97439.27
2019-03-06T07:22:45.315Z,97439.69
2019-03-06T07:24:53.552Z,97438.63
2019-03-06T07:26:58.606Z,97437.34
2019-03-06T07:29:02.951Z,97442.34
2019-03-06T07:31:08.966Z,97440.70
2019-03-06T07:33:13.198Z,97445.95
2019-03-06T07:35:16.206Z,97447.84
2019-03-06T07:37:17.811Z,97432.41
2019-03-06T07:39:21.035Z,97440.18
2019-03-06T07:41:22.629Z,97439.58
2019-03-06T07:43:26.737Z,97434.10
2019-03-06T07:45:28.329Z,97432.14
2019-03-06T07:47:34.446Z,97432.84
2019-03-06T07:49:54.714Z,97434.83
2019-03-06T07:52:06.296Z,97430.95
2019-03-06T07:54:25.621Z,97434.73
2019-03-06T07:56:30.693Z,97440.95
2019-03-06T07:58:32.290Z,97439.47
2019-03-06T08:00:33.894Z,97434.86
2019-03-06T08:02:35.574Z,97437.73
2019-03-06T08:04:37.211Z,97434.04
2019-03-06T08:06:38.824Z,97430.14
2019-03-06T08:08:40.427Z,97436.76
2019-03-06T08:10:42.057Z,97435.72
2019-03-06T08:12:43.711Z,97441.70
2019-03-06T08:14:51.017Z,97441.24
2019-03-06T08:16:54.419Z,97442.85
2019-03-06T08:19:11.749Z,97439.01
2019-03-06T08:21:14.178Z,97426.38
2019-03-06T08:23:30.644Z,97445.34
2019-03-06T08:25:37.955Z,97408.11
2019-03-06T08:27:39.544Z,97430.27
2019-03-06T08:29:41.145Z,97426.13
2019-03-06T08:31:42.736Z,97429.73
2019-03-06T08:33:44.333Z,97429.98
2019-03-06T08:35:45.975Z,97434.66
2019-03-06T08:37:47.584Z,97431.98
2019-03-06T08:39:49.186Z,97428.01
2019-03-06T08:41:50.836Z,97435.20
2019-03-06T08:43:52.459Z,97437.34
2019-03-06T08:45:59.044Z,97433.94
2019-03-06T08:48:04.747Z,97432.10
2019-03-06T08:50:07.290Z,97431.03
2019-03-06T08:52:12.649Z,97426.02
2019-03-06T08:54:31.136Z,97428.77
2019-03-06T08:56:33.228Z,97420.36
2019-03-06T08:58:36.308Z,97421.30
2019-03-06T09:00:51.758Z,97420.61
2019-03-06T09:02:54.196Z,97422.57
2019-03-06T09:04:59.706Z,97433.57
2019-03-06T09:07:05.198Z,97432.25
2019-03-06T09:09:11.565Z,97432.36
2019-03-06T09:11:23.078Z,97428.75
2019-03-06T09:13:27.951Z,97424.50
2019-03-06T09:15:47.847Z,97424.56
2019-03-06T09:18:09.028Z,97425.20
2019-03-06T09:20:11.679Z,97422.56
2019-03-06T09:22:33.701Z,97423.05
2019-03-06T09:24:42.078Z,97416.22
2019-03-06T09:26:46.185Z,97415.75
2019-03-06T09:28:49.857Z,97430.39
2019-03-06T09:30:51.450Z,97428.73
2019-03-06T09:32:54.878Z,97421.98
2019-03-06T09:35:00.017Z,97414.81
2019-03-06T09:37:03.516Z,97419.21
2019-03-06T09:39:06.572Z,97421.75
2019-03-06T09:41:13.883Z,97425.13
2019-03-06T09:43:15.585Z,97424.44
2019-03-06T09:45:18.026Z,97413.39
2019-03-06T09:47:20.405Z,97419.14
2019-03-06T09:49:22.014Z,97413.52
2019-03-06T09:51:26.470Z,97385.38
2019-03-06T09:53:29.678Z,97407.94
2019-03-06T09:55:46.966Z,97397.84
2019-03-06T09:57:49.425Z,97395.25
2019-03-06T09:59:51.826Z,97398.98
2019-03-06T10:02:07.101Z,97386.66
2019-03-06T10:04:15.745Z,97385.14
2019-03-06T10:06:22.284Z,97389.63
2019-03-06T10:08:26.046Z,97386.19
2019-03-06T10:10:46.386Z,97386.53
2019-03-06T10:12:47.886Z,97394.30
2019-03-06T10:14:53.377Z,97363.20
2019-03-06T10:16:57.774Z,97379.51
2019-03-06T10:18:59.378Z,97380.05
2019-03-06T10:21:01.016Z,97378.09
2019-03-06T10:23:02.663Z,97371.09
2019-03-06T10:25:04.330Z,97385.28
2019-03-06T10:27:06.225Z,97384.19
2019-03-06T10:29:07.885Z,97378.79
2019-03-06T10:31:09.496Z,97361.88
2019-03-06T10:33:11.114Z,97377.83
2019-03-06T10:35:12.738Z,97379.59
2019-03-06T10:37:14.369Z,97383.41
2019-03-06T10:39:16.047Z,97380.13
2019-03-06T10:41:17.666Z,97374.23
2019-03-06T10:43:19.302Z,97381.97
2019-03-06T10:45:20.968Z,97374.42
2019-03-06T10:47:22.640Z,97373.27
2019-03-06T10:49:24.256Z,97367.50
2019-03-06T10:51:25.868Z,97359.05
2019-03-06T10:53:27.469Z,97358.40
2019-03-06T10:55:29.123Z,97350.44
2019-03-06T10:57:30.758Z,97343.27
2019-03-06T10:59:32.386Z,97353.58
2019-03-06T11:01:34.044Z,97343.91
2019-03-06T11:03:36.314Z,97340.61
2019-03-06T11:05:38.147Z,97342.39
2019-03-06T11:07:39.780Z,97323.34
2019-03-06T11:09:41.430Z,97324.51
2019-03-06T11:11:43.064Z,97319.24
2019-03-06T11:13:44.668Z,97315.83
2019-03-06T11:15:55.191Z,97309.78
2019-03-06T11:17:47.985Z,97311.72
2019-03-06T11:19:49.634Z,97296.50
2019-03-06T11:21:51.254Z,97295.84
2019-03-06T11:23:53.238Z,97286.48
2019-03-06T11:25:54.841Z,97283.27
2019-03-06T11:27:56.480Z,97278.05
2019-03-06T11:29:58.264Z,97261.19
2019-03-06T11:31:59.791Z,97282.74
2019-03-06T11:34:01.448Z,97279.95
2019-03-06T11:36:03.084Z,97269.00
2019-03-06T11:38:04.760Z,97261.59
2019-03-06T11:40:06.729Z,97226.66
2019-03-06T11:42:08.391Z,97244.72
2019-03-06T11:44:09.993Z,97246.66
2019-03-06T11:46:11.600Z,97210.81
2019-03-06T11:48:13.191Z,97241.42
2019-03-06T11:50:14.829Z,97238.98
2019-03-06T11:52:16.456Z,97241.96
2019-03-06T11:54:18.076Z,97240.70
2019-03-06T11:56:19.686Z,97228.48
2019-03-06T11:58:21.292Z,97229.04
2019-03-06T12:00:32.825Z,97231.23
2019-03-06T12:02:34.450Z,97225.74
2019-03-06T12:04:36.067Z,97231.02
2019-03-06T12:06:37.681Z,97219.77
2019-03-06T12:08:45.520Z,97211.98
2019-03-06T12:10:40.942Z,97214.70
2019-03-06T12:12:42.545Z,97206.77
2019-03-06T12:14:44.155Z,97209.59
2019-03-06T12:16:46.206Z,97210.11
2019-03-06T12:18:47.827Z,97194.48
2019-03-06T12:20:49.458Z,97189.02
2019-03-06T12:22:52.510Z,97183.18
2019-03-06T12:24:54.263Z,97181.66
2019-03-06T12:26:56.363Z,97180.84
2019-03-06T12:28:58.700Z,97176.64
2019-03-06T12:31:00.306Z,97171.64
2019-03-06T12:33:01.937Z,97165.39
2019-03-06T12:35:03.542Z,97160.69
2019-03-06T12:37:08.988Z,97147.44
2019-03-06T12:39:10.657Z,97161.97
2019-03-06T12:41:12.773Z,97146.42
2019-03-06T12:43:14.045Z,97148.24
2019-03-06T12:45:15.671Z,97141.19
2019-03-06T12:47:17.626Z,97146.49
2019-03-06T12:49:19.229Z,97148.73
2019-03-06T12:51:20.838Z,97144.64
2019-03-06T12:53:22.489Z,97134.14
2019-03-06T12:55:24.151Z,97135.44
2019-03-06T12:57:25.786Z,97117.58
2019-03-06T12:59:27.395Z,97132.67
2019-03-06T13:01:29.027Z,97126.28
2019-03-06T13:03:30.670Z,97132.42
2019-03-06T13:05:32.344Z,97118.83
2019-03-06T13:07:34.126Z,97119.54
2019-03-06T13:09:37.621Z,97122.42
2019-03-06T13:11:38.209Z,97076.97
2019-03-06T13:13:41.312Z,97107.83
2019-03-06T13:15:42.944Z,97105.95
2019-03-06T13:17:44.571Z,97101.13
2019-03-06T13:19:46.181Z,97103.16
2019-03-06T13:21:47.842Z,97096.03
2019-03-06T13:23:49.440Z,97097.18
2019-03-06T13:25:51.050Z,97092.86
2019-03-06T13:27:55.102Z,97080.64
2019-03-06T13:29:54.962Z,97079.95
2019-03-06T13:31:56.785Z,97072.86
2019-03-06T13:34:02.122Z,97074.05
2019-03-06T13:36:03.766Z,97067.16
2019-03-06T13:38:05.400Z,97053.63
2019-03-06T13:40:07.090Z,97046.19
2019-03-06T13:42:08.702Z,97027.23
2019-03-06T13:44:10.473Z,97044.58
2019-03-06T13:46:12.101Z,97034.38
2019-03-06T13:48:13.707Z,97048.48
2019-03-06T13:50:15.493Z,97038.34
2019-03-06T13:52:17.200Z,97031.14
2019-03-06T13:54:20.059Z,97030.59
2019-03-06T13:56:23.953Z,97036.47
2019-03-06T13:58:25.570Z,97031.47
2019-03-06T14:00:27.184Z,97031.92
2019-03-06T14:02:28.775Z,97031.19
2019-03-06T14:04:31.036Z,97035.70
2019-03-06T14:06:32.019Z,97036.03
2019-03-06T14:08:37.260Z,97034.42
2019-03-06T14:10:38.862Z,96992.77
2019-03-06T14:12:40.506Z,97019.08
2019-03-06T14:14:42.166Z,97010.08
2019-03-06T14:16:43.792Z,96996.49
2019-03-06T14:18:45.424Z,97010.72
2019-03-06T14:20:47.431Z,97006.91
2019-03-06T14:22:49.046Z,96997.95
2019-03-06T14:24:50.713Z,97003.56
2019-03-06T14:26:52.742Z,97000.43
2019-03-06T14:28:54.368Z,96992.19
2019-03-06T14:30:56.036Z,96987.91
2019-03-06T14:32:57.656Z,96989.89
2019-03-06T14:34:59.512Z,96976.20
2019-03-06T14:37:01.163Z,96974.66
2019-03-06T14:39:02.890Z,96960.95
2019-03-06T14:41:04.556Z,96959.49
2019-03-06T14:43:06.179Z,96947.08
2019-03-06T14:45:07.796Z,96941.15
2019-03-06T14:47:09.409Z,96950.51
2019-03-06T14:49:11.072Z,96937.25
2019-03-06T14:51:17.708Z,96931.89
2019-03-06T14:53:19.807Z,96926.75
2019-03-06T14:55:21.417Z,96931.39
2019-03-06T14:57:23.024Z,96924.55
2019-03-06T14:59:24.699Z,96920.45
2019-03-06T15:01:26.313Z,96921.67
2019-03-06T15:03:28.294Z,96910.34
2019-03-06T15:05:29.918Z,96908.17
2019-03-06T15:07:31.535Z,96909.09
2019-03-06T15:09:33.150Z,96896.30
2019-03-06T15:11:34.770Z,96891.87
2019-03-06T15:13:36.386Z,96886.36
2019-03-06T15:15:38.008Z,96886.00
2019-03-06T15:17:39.729Z,96874.00
2019-03-06T15:19:41.633Z,96880.80
2019-03-06T15:21:43.249Z,96869.08
2019-03-06T15:23:44.910Z,96866.16
2019-03-06T15:25:46.561Z,96866.69
2019-03-06T15:27:48.165Z,96867.91
2019-03-06T15:29:49.786Z,96867.80
2019-03-06T15:31:51.663Z,96863.66
2019-03-06T15:33:53.409Z,96861.77
2019-03-06T15:35:55.025Z,96855.42
2019-03-06T15:37:56.681Z,96854.59
2019-03-06T15:39:58.301Z,96849.52
2019-03-06T15:42:01.459Z,96833.19
2019-03-06T15:44:01.597Z,96838.22
2019-03-06T15:46:03.560Z,96825.68
2019-03-06T15:48:05.201Z,96790.63
2019-03-06T15:50:06.835Z,96823.42
2019-03-06T15:52:08.541Z,96842.80
2019-03-06T15:54:10.170Z,96816.91
2019-03-06T15:56:11.776Z,96827.52
2019-03-06T15:58:13.443Z,96826.43
2019-03-06T16:00:15.070Z,96815.13
2019-03-06T16:02:16.780Z,96814.64
2019-03-06T16:04:18.394Z,96813.22
2019-03-06T16:06:20.709Z,96811.37
2019-03-06T16:08:21.658Z,96807.69
2019-03-06T16:10:23.283Z,96814.34
2019-03-06T16:12:25.786Z,96793.61
2019-03-06T16:14:27.425Z,96790.89
2019-03-06T16:16:29.038Z,96787.61
2019-03-06T16:18:30.674Z,96785.78
2019-03-06T16:20:32.286Z,96794.28
2019-03-06T16:22:33.880Z,96788.78
2019-03-06T16:24:37.499Z,96781.97
2019-03-06T16:26:37.185Z,96783.09
2019-03-06T16:28:38.886Z,96779.23
2019-03-06T16:30:40.502Z,96782.64
2019-03-06T16:32:42.118Z,96776.62
2019-03-06T16:34:43.776Z,96780.38
2019-03-06T16:36:45.385Z,96778.13
2019-03-06T16:38:47.040Z,96775.14
2019-03-06T16:40:48.736Z,96774.26
2019-03-06T16:42:51.034Z,96765.34
2019-03-06T16:44:52.650Z,96766.03
2019-03-06T16:46:54.320Z,96766.34
2019-03-06T16:48:56.022Z,96753.17
2019-03-06T16:50:57.641Z,96752.75
2019-03-06T16:52:59.584Z,96747.19
2019-03-06T16:55:01.697Z,96740.77
2019-03-06T16:57:03.391Z,96740.89
2019-03-06T16:59:05.034Z,96742.72
2019-03-06T17:01:06.657Z,96738.82
2019-03-06T17:03:08.302Z,96744.83
2019-03-06T17:05:09.956Z,96750.00
2019-03-06T17:07:12.277Z,96743.30
2019-03-06T17:09:13.972Z,96728.65
2019-03-06T17:11:15.601Z,96740.73
2019-03-06T17:13:17.253Z,96745.13
2019-03-06T17:15:18.877Z,96745.28
2019-03-06T17:17:20.559Z,96744.95
2019-03-06T17:19:22.216Z,96741.25
2019-03-06T17:21:23.824Z,96743.44
2019-03-06T17:23:25.938Z,96738.09
2019-03-06T17:25:28.474Z,96737.57
2019-03-06T17:27:29.938Z,96741.54
2019-03-06T17:29:31.587Z,96733.34
2019-03-06T17:31:33.242Z,96730.28
2019-03-06T17:33:34.860Z,96720.59
2019-03-06T17:35:36.488Z,96718.61
2019-03-06T17:37:38.117Z,96727.66
2019-03-06T17:39:39.757Z,96732.77
2019-03-06T17:41:41.441Z,96713.63
2019-03-06T17:43:43.049Z,96695.50
2019-03-06T17:45:44.656Z,96712.96
2019-03-06T17:47:46.282Z,96708.87
2019-03-06T17:49:47.959Z,96713.20
2019-03-06T17:51:49.577Z,96709.06
2019-03-06T17:53:51.182Z,96719.69
2019-03-06T17:55:52.856Z,96709.47
2019-03-06T17:57:54.535Z,96700.22
2019-03-06T17:59:56.155Z,96703.55
2019-03-06T18:01:58.045Z,96702.78
2019-03-06T18:04:01.486Z,96688.14
2019-03-06T18:06:03.137Z,96702.54
2019-03-06T18:08:04.755Z,96729.14
2019-03-06T18:10:06.390Z,96708.16
2019-03-06T18:12:08.003Z,96688.00
2019-03-06T18:14:09.654Z,96672.88
2019-03-06T18:16:11.306Z,96685.14
2019-03-06T18:18:12.926Z,96684.67
2019-03-06T18:20:14.548Z,96665.40
2019-03-06T18:22:16.186Z,96663.23
2019-03-06T18:24:17.849Z,96678.09
2019-03-06T18:26:19.462Z,96669.63
2019-03-06T18:28:21.065Z,96674.37
2019-03-06T18:30:22.677Z,96677.73
2019-03-06T18:32:24.433Z,96684.03
2019-03-06T18:34:26.203Z,96681.06
2019-03-06T18:36:27.817Z,96681.15
2019-03-06T18:38:30.275Z,96675.54
2019-03-06T18:40:31.904Z,96677.70
2019-03-06T18:42:34.038Z,96675.70
2019-03-06T18:44:35.652Z,96666.38
2019-03-06T18:46:37.278Z,96656.31
2019-03-06T18:48:39.126Z,96654.64
2019-03-06T18:50:40.778Z,96664.73
2019-03-06T18:52:42.399Z,96668.38
2019-03-06T18:54:44.079Z,96631.45
2019-03-06T18:56:45.754Z,96647.11
2019-03-06T18:58:47.361Z,96650.06
2019-03-06T19:00:49.044Z,96650.17
2019-03-06T19:02:50.721Z,96644.55
2019-03-06T19:04:52.508Z,96645.03
2019-03-06T19:06:54.129Z,96630.03
2019-03-06T19:08:55.782Z,96634.75
2019-03-06T19:10:57.404Z,96624.06
2019-03-06T19:12:59.047Z,96629.34
2019-03-06T19:15:00.727Z,96615.82
2019-03-06T19:17:02.400Z,96622.02
2019-03-06T19:19:04.021Z,96609.95
2019-03-06T19:21:05.903Z,96620.89
2019-03-06T19:23:07.542Z,96617.06
2019-03-06T19:25:09.880Z,96613.06
2019-03-06T19:27:11.480Z,96618.84
2019-03-06T19:29:13.094Z,96616.78
2019-03-06T19:31:14.779Z,96604.27
2019-03-06T19:33:16.413Z,96617.50
2019-03-06T19:35:18.346Z,96623.84
2019-03-06T19:37:20.091Z,96606.83
2019-03-06T19:39:22.404Z,96599.61
2019-03-06T19:41:23.431Z,96652.77
2019-03-06T19:43:25.077Z,96611.11
2019-03-06T19:45:26.738Z,96595.36
2019-03-06T19:47:28.407Z,96606.00
2019-03-06T19:49:30.033Z,96595.41
2019-03-06T19:51:31.702Z,96592.91
2019-03-06T19:53:33.319Z,96601.14
2019-03-06T19:55:35.766Z,96598.28
2019-03-06T19:57:37.368Z,96588.95
2019-03-06T19:59:38.982Z,96588.53
2019-03-06T20:01:40.599Z,96595.06
2019-03-06T20:03:42.291Z,96600.79
2019-03-06T20:05:43.938Z,96597.42
2019-03-06T20:07:47.133Z,96602.13
2019-03-06T20:09:47.488Z,96595.70
2019-03-06T20:11:49.106Z,96592.91
2019-03-06T20:13:50.712Z,96585.25
2019-03-06T20:15:52.331Z,96593.12
2019-03-06T20:17:54.004Z,96588.98
2019-03-06T20:19:55.656Z,96582.72
2019-03-06T20:21:57.286Z,96570.92
2019-03-06T20:23:59.381Z,96588.86
2019-03-06T20:26:01.054Z,96583.31
2019-03-06T20:28:02.693Z,96577.77
2019-03-06T20:30:04.342Z,96578.31
2019-03-06T20:32:05.976Z,96583.00
2019-03-06T20:34:08.211Z,96576.94
2019-03-06T20:36:09.844Z,96575.08
2019-03-06T20:38:11.459Z,96563.70
2019-03-06T20:40:13.092Z,96551.14
2019-03-06T20:42:14.697Z,96552.07
2019-03-06T20:44:17.799Z,96563.63
2019-03-06T20:46:18.004Z,96542.91
2019-03-06T20:48:19.647Z,96560.75
2019-03-06T20:50:21.311Z,96530.11
2019-03-06T20:52:23.091Z,96543.20
2019-03-06T20:54:27.348Z,96542.44
2019-03-06T20:56:27.561Z,96549.55
2019-03-06T20:58:29.911Z,96542.28
2019-03-06T21:00:31.533Z,96537.88
2019-03-06T21:02:33.204Z,96538.74
2019-03-06T21:04:34.852Z,96548.11
2019-03-06T21:06:36.531Z,96545.60
2019-03-06T21:08:38.118Z,96554.78
2019-03-06T21:10:39.742Z,96540.31
2019-03-06T21:12:41.358Z,96536.72
2019-03-06T21:14:43.015Z,96540.16
2019-03-06T21:16:45.028Z,96540.42
2019-03-06T21:18:46.655Z,96537.44
2019-03-06T21:20:48.339Z,96533.09
2019-03-06T21:22:50.065Z,96528.50
2019-03-06T21:24:51.674Z,96518.49
2019-03-06T21:27:03.204Z,96528.98
2019-03-06T21:29:04.868Z,96543.00
2019-03-06T21:31:06.492Z,96553.13
2019-03-06T21:33:08.160Z,96560.69
2019-03-06T21:35:09.842Z,96549.70
2019-03-06T21:37:11.460Z,96552.25
2019-03-06T21:39:13.090Z,96548.70
2019-03-06T21:41:14.775Z,96536.08
2019-03-06T21:43:16.433Z,96535.20
2019-03-06T21:45:18.044Z,96522.53
2019-03-06T21:47:20.119Z,96529.81
2019-03-06T21:49:21.744Z,96517.98
2019-03-06T21:51:23.380Z,96524.89
2019-03-06T21:53:25.020Z,96518.67
2019-03-06T21:55:26.656Z,96525.00
2019-03-06T21:57:28.283Z,96524.45
2019-03-06T21:59:29.936Z,96524.94
2019-03-06T22:01:31.581Z,96516.88
2019-03-06T22:03:33.223Z,96520.27
2019-03-06T22:05:34.839Z,96518.59
2019-03-06T22:07:36.509Z,96521.80
2019-03-06T22:09:38.134Z,96513.70
2019-03-06T22:11:39.746Z,96507.06
2019-03-06T22:13:41.353Z,96513.30
2019-03-06T22:15:42.998Z,96509.02
2019-03-06T22:17:44.602Z,96505.03
2019-03-06T22:19:46.263Z,96525.48
2019-03-06T22:21:47.886Z,96494.39
2019-03-06T22:23:49.497Z,96488.31
2019-03-06T22:25:51.094Z,96490.63
2019-03-06T22:27:52.732Z,96486.42
2019-03-06T22:29:54.394Z,96494.23
2019-03-06T22:31:56.022Z,96470.39
2019-03-06T22:33:57.703Z,96476.69
2019-03-06T22:35:59.319Z,96475.85
2019-03-06T22:38:00.929Z,96481.59
2019-03-06T22:40:02.578Z,96472.87
2019-03-06T22:42:04.234Z,96483.95
2019-03-06T22:44:05.847Z,96481.39
2019-03-06T22:46:07.483Z,96479.37
2019-03-06T22:48:09.088Z,96464.06
2019-03-06T22:50:10.708Z,96480.59
2019-03-06T22:52:12.330Z,96472.33
2019-03-06T22:54:13.960Z,96471.64
2019-03-06T22:56:15.581Z,96471.81
2019-03-06T22:58:17.198Z,96469.83
2019-03-06T23:00:18.902Z,96463.53
2019-03-06T23:02:20.512Z,96458.03
2019-03-06T23:04:22.189Z,96445.73
2019-03-06T23:06:23.807Z,96449.73
2019-03-06T23:08:25.467Z,96455.59
2019-03-06T23:10:27.127Z,96453.45
2019-03-06T23:12:28.759Z,96434.77
2019-03-06T23:14:30.414Z,96430.33
2019-03-06T23:16:32.021Z,96433.72
2019-03-06T23:18:33.635Z,96431.88
2019-03-06T23:20:35.264Z,96431.79
2019-03-06T23:22:36.885Z,96416.58
2019-03-06T23:24:38.570Z,96407.48
2019-03-06T23:26:43.109Z,96408.31
2019-03-06T23:28:41.880Z,96407.80
2019-03-06T23:30:43.522Z,96402.25
2019-03-06T23:32:45.160Z,96404.45
2019-03-06T23:34:46.794Z,96390.42
2019-03-06T23:36:48.416Z,96392.11
2019-03-06T23:38:50.089Z,96392.95
2019-03-06T23:40:51.724Z,96381.92
2019-03-06T23:42:53.355Z,96367.86
2019-03-06T23:44:55.064Z,96381.89
2019-03-06T23:46:56.681Z,96378.09
2019-03-06T23:48:58.338Z,96381.95
2019-03-06T23:50:59.935Z,96375.47
2019-03-06T23:53:02.036Z,96382.66
2019-03-06T23:55:03.707Z,96375.53
2019-03-06T23:57:05.336Z,96369.17